sensor_id;sensor_type;location;lat;lon;timestamp;temperature;humidity
51884;DHT22;37915;53.254;6.598;2023-08-07T00:00:23;15.70;99.90
51884;DHT22;37915;53.254;6.598;2023-08-07T00:02:49;15.60;99.90
51884;DHT22;37915;53.254;6.598;2023-08-07T00:05:15;15.60;99.90
51884;DHT22;37915;53.254;6.598;2023-08-07T00:07:44;15.60;99.90
51884;DHT22;37915;53.254;6.598;2023-08-07T00:10:10;15.60;99.90
51884;DHT22;37915;53.254;6.598;2023-08-07T00:12:36;15.60;99.90
51884;DHT22;37915;53.254;6.598;2023-08-07T00:15:03;15.60;99.90
51884;DHT22;37915;53.254;6.598;2023-08-07T00:17:29;15.50;99.90
51884;DHT22;37915;53.254;6.598;2023-08-07T00:19:55;15.50;99.90
51884;DHT22;37915;53.254;6.598;2023-08-07T00:22:20;15.50;99.90
51884;DHT22;37915;53.254;6.598;2023-08-07T00:24:46;15.50;99.90
51884;DHT22;37915;53.254;6.598;2023-08-07T00:27:12;15.40;99.90
51884;DHT22;37915;53.254;6.598;2023-08-07T00:29:38;15.40;99.90
51884;DHT22;37915;53.254;6.598;2023-08-07T00:32:04;15.40;99.90
51884;DHT22;37915;53.254;6.598;2023-08-07T00:34:30;15.40;99.90
51884;DHT22;37915;53.254;6.598;2023-08-07T00:36:56;15.30;99.90
51884;DHT22;37915;53.254;6.598;2023-08-07T00:39:22;15.40;99.90
51884;DHT22;37915;53.254;6.598;2023-08-07T00:41:48;15.30;99.90
51884;DHT22;37915;53.254;6.598;2023-08-07T00:44:13;15.30;99.90
51884;DHT22;37915;53.254;6.598;2023-08-07T00:46:39;15.20;99.90
51884;DHT22;37915;53.254;6.598;2023-08-07T00:49:07;15.20;99.90
51884;DHT22;37915;53.254;6.598;2023-08-07T00:51:33;15.20;99.90
51884;DHT22;37915;53.254;6.598;2023-08-07T00:54:01;15.10;99.90
51884;DHT22;37915;53.254;6.598;2023-08-07T00:56:28;15.10;99.90
51884;DHT22;37915;53.254;6.598;2023-08-07T00:58:54;15.10;99.90
51884;DHT22;37915;53.254;6.598;2023-08-07T01:01:19;15.20;99.90
51884;DHT22;37915;53.254;6.598;2023-08-07T01:03:45;15.10;99.90
51884;DHT22;37915;53.254;6.598;2023-08-07T01:06:11;15.10;99.90
51884;DHT22;37915;53.254;6.598;2023-08-07T01:08:37;15.10;99.90
51884;DHT22;37915;53.254;6.598;2023-08-07T01:11:20;15.10;99.90
51884;DHT22;37915;53.254;6.598;2023-08-07T01:16:37;15.00;99.90
51884;DHT22;37915;53.254;6.598;2023-08-07T01:19:19;14.90;99.90
51884;DHT22;37915;53.254;6.598;2023-08-07T01:21:48;14.90;99.90
51884;DHT22;37915;53.254;6.598;2023-08-07T01:24:14;14.80;99.90
51884;DHT22;37915;53.254;6.598;2023-08-07T01:26:41;14.80;99.90
51884;DHT22;37915;53.254;6.598;2023-08-07T01:29:27;14.70;99.90
51884;DHT22;37915;53.254;6.598;2023-08-07T01:31:58;14.70;99.90
51884;DHT22;37915;53.254;6.598;2023-08-07T01:34:25;14.70;99.90
51884;DHT22;37915;53.254;6.598;2023-08-07T01:36:53;14.70;99.90
51884;DHT22;37915;53.254;6.598;2023-08-07T01:39:20;14.60;99.90
51884;DHT22;37915;53.254;6.598;2023-08-07T01:41:46;14.60;99.90
51884;DHT22;37915;53.254;6.598;2023-08-07T01:44:12;14.60;99.90
51884;DHT22;37915;53.254;6.598;2023-08-07T01:46:38;14.60;99.90
51884;DHT22;37915;53.254;6.598;2023-08-07T01:49:04;14.50;99.90
51884;DHT22;37915;53.254;6.598;2023-08-07T01:51:29;14.50;99.90
51884;DHT22;37915;53.254;6.598;2023-08-07T01:53:55;14.60;99.90
51884;DHT22;37915;53.254;6.598;2023-08-07T01:56:21;14.60;99.90
51884;DHT22;37915;53.254;6.598;2023-08-07T01:58:46;14.50;99.90
51884;DHT22;37915;53.254;6.598;2023-08-07T02:01:12;14.50;99.90
51884;DHT22;37915;53.254;6.598;2023-08-07T02:03:38;14.50;99.90
51884;DHT22;37915;53.254;6.598;2023-08-07T02:06:03;14.60;99.90
51884;DHT22;37915;53.254;6.598;2023-08-07T02:08:29;14.50;99.90
51884;DHT22;37915;53.254;6.598;2023-08-07T02:10:55;14.50;99.90
51884;DHT22;37915;53.254;6.598;2023-08-07T02:13:20;14.50;99.90
51884;DHT22;37915;53.254;6.598;2023-08-07T02:15:46;14.50;99.90
51884;DHT22;37915;53.254;6.598;2023-08-07T02:18:11;14.50;99.90
51884;DHT22;37915;53.254;6.598;2023-08-07T02:20:37;14.40;99.90
51884;DHT22;37915;53.254;6.598;2023-08-07T02:23:03;14.40;99.90
51884;DHT22;37915;53.254;6.598;2023-08-07T02:25:28;14.40;99.90
51884;DHT22;37915;53.254;6.598;2023-08-07T02:27:54;14.40;99.90
51884;DHT22;37915;53.254;6.598;2023-08-07T02:30:20;14.40;99.90
51884;DHT22;37915;53.254;6.598;2023-08-07T02:32:45;14.30;99.90
51884;DHT22;37915;53.254;6.598;2023-08-07T02:35:12;14.30;99.90
51884;DHT22;37915;53.254;6.598;2023-08-07T02:37:37;14.40;99.90
51884;DHT22;37915;53.254;6.598;2023-08-07T02:40:03;14.40;99.90
51884;DHT22;37915;53.254;6.598;2023-08-07T02:42:29;14.40;99.90
51884;DHT22;37915;53.254;6.598;2023-08-07T02:44:55;14.40;99.90
51884;DHT22;37915;53.254;6.598;2023-08-07T02:47:21;14.40;99.90
51884;DHT22;37915;53.254;6.598;2023-08-07T02:49:46;14.40;99.90
51884;DHT22;37915;53.254;6.598;2023-08-07T02:52:12;14.40;99.90
51884;DHT22;37915;53.254;6.598;2023-08-07T02:54:38;14.50;99.90
51884;DHT22;37915;53.254;6.598;2023-08-07T02:57:03;14.40;99.90
51884;DHT22;37915;53.254;6.598;2023-08-07T02:59:29;14.50;99.90
51884;DHT22;37915;53.254;6.598;2023-08-07T03:01:55;14.50;99.90
51884;DHT22;37915;53.254;6.598;2023-08-07T03:04:21;14.50;99.90
51884;DHT22;37915;53.254;6.598;2023-08-07T03:06:47;14.50;99.90
51884;DHT22;37915;53.254;6.598;2023-08-07T03:09:12;14.50;99.90
51884;DHT22;37915;53.254;6.598;2023-08-07T03:11:38;14.50;99.90
51884;DHT22;37915;53.254;6.598;2023-08-07T03:14:04;14.60;99.90
51884;DHT22;37915;53.254;6.598;2023-08-07T03:16:29;14.60;99.90
51884;DHT22;37915;53.254;6.598;2023-08-07T03:18:55;14.60;99.90
51884;DHT22;37915;53.254;6.598;2023-08-07T03:21:21;14.60;99.90
51884;DHT22;37915;53.254;6.598;2023-08-07T03:23:46;14.60;99.90
51884;DHT22;37915;53.254;6.598;2023-08-07T03:26:13;14.60;99.90
51884;DHT22;37915;53.254;6.598;2023-08-07T03:28:38;14.60;99.90
51884;DHT22;37915;53.254;6.598;2023-08-07T03:31:04;14.60;99.90
51884;DHT22;37915;53.254;6.598;2023-08-07T03:33:30;14.60;99.90
51884;DHT22;37915;53.254;6.598;2023-08-07T03:35:56;14.60;99.90
51884;DHT22;37915;53.254;6.598;2023-08-07T03:38:22;14.70;99.90
51884;DHT22;37915;53.254;6.598;2023-08-07T03:40:47;14.70;99.90
51884;DHT22;37915;53.254;6.598;2023-08-07T03:43:13;14.70;99.90
51884;DHT22;37915;53.254;6.598;2023-08-07T03:45:39;14.70;99.90
51884;DHT22;37915;53.254;6.598;2023-08-07T03:48:05;14.70;99.90
51884;DHT22;37915;53.254;6.598;2023-08-07T03:50:31;14.80;99.90
51884;DHT22;37915;53.254;6.598;2023-08-07T03:53:00;14.80;99.90
51884;DHT22;37915;53.254;6.598;2023-08-07T03:55:26;14.80;99.90
51884;DHT22;37915;53.254;6.598;2023-08-07T03:57:52;14.90;99.90
51884;DHT22;37915;53.254;6.598;2023-08-07T04:00:18;14.80;99.90
51884;DHT22;37915;53.254;6.598;2023-08-07T04:02:44;14.80;99.90
51884;DHT22;37915;53.254;6.598;2023-08-07T04:05:10;14.80;99.90
51884;DHT22;37915;53.254;6.598;2023-08-07T04:07:36;14.70;99.90
51884;DHT22;37915;53.254;6.598;2023-08-07T04:10:01;14.70;99.90
51884;DHT22;37915;53.254;6.598;2023-08-07T04:12:27;14.70;99.90
51884;DHT22;37915;53.254;6.598;2023-08-07T04:14:53;15.00;99.90
51884;DHT22;37915;53.254;6.598;2023-08-07T04:17:19;14.70;99.90
51884;DHT22;37915;53.254;6.598;2023-08-07T04:19:44;14.70;99.90
51884;DHT22;37915;53.254;6.598;2023-08-07T04:22:10;14.70;99.90
51884;DHT22;37915;53.254;6.598;2023-08-07T04:24:36;14.70;99.90
51884;DHT22;37915;53.254;6.598;2023-08-07T04:27:01;14.70;99.90
51884;DHT22;37915;53.254;6.598;2023-08-07T04:29:27;14.70;99.90
51884;DHT22;37915;53.254;6.598;2023-08-07T04:31:53;14.70;99.90
51884;DHT22;37915;53.254;6.598;2023-08-07T04:34:18;14.70;99.90
51884;DHT22;37915;53.254;6.598;2023-08-07T04:36:44;14.70;99.90
51884;DHT22;37915;53.254;6.598;2023-08-07T04:39:10;14.70;99.90
51884;DHT22;37915;53.254;6.598;2023-08-07T04:41:37;14.70;99.90
51884;DHT22;37915;53.254;6.598;2023-08-07T04:44:02;14.70;99.90
51884;DHT22;37915;53.254;6.598;2023-08-07T04:46:28;14.70;99.90
51884;DHT22;37915;53.254;6.598;2023-08-07T04:48:54;14.70;99.90
51884;DHT22;37915;53.254;6.598;2023-08-07T04:51:19;14.60;99.90
51884;DHT22;37915;53.254;6.598;2023-08-07T04:53:45;14.60;99.90
51884;DHT22;37915;53.254;6.598;2023-08-07T04:56:11;14.60;99.90
51884;DHT22;37915;53.254;6.598;2023-08-07T04:58:37;14.70;99.90
51884;DHT22;37915;53.254;6.598;2023-08-07T05:01:02;14.70;99.90
51884;DHT22;37915;53.254;6.598;2023-08-07T05:03:28;14.70;99.90
51884;DHT22;37915;53.254;6.598;2023-08-07T05:05:59;14.70;99.90
51884;DHT22;37915;53.254;6.598;2023-08-07T05:08:25;14.70;99.90
51884;DHT22;37915;53.254;6.598;2023-08-07T05:10:51;14.80;99.90
51884;DHT22;37915;53.254;6.598;2023-08-07T05:13:17;14.80;99.90
51884;DHT22;37915;53.254;6.598;2023-08-07T05:15:42;14.80;99.90
51884;DHT22;37915;53.254;6.598;2023-08-07T05:18:08;14.80;99.90
51884;DHT22;37915;53.254;6.598;2023-08-07T05:20:34;14.80;99.90
51884;DHT22;37915;53.254;6.598;2023-08-07T05:22:59;14.90;99.90
51884;DHT22;37915;53.254;6.598;2023-08-07T05:25:25;14.90;99.90
51884;DHT22;37915;53.254;6.598;2023-08-07T05:27:51;14.90;99.90
51884;DHT22;37915;53.254;6.598;2023-08-07T05:30:17;14.90;99.90
51884;DHT22;37915;53.254;6.598;2023-08-07T05:32:43;14.90;99.90
51884;DHT22;37915;53.254;6.598;2023-08-07T05:35:08;14.90;99.90
51884;DHT22;37915;53.254;6.598;2023-08-07T05:37:34;14.90;99.90
51884;DHT22;37915;53.254;6.598;2023-08-07T05:40:00;14.90;99.90
51884;DHT22;37915;53.254;6.598;2023-08-07T05:42:26;14.90;99.90
51884;DHT22;37915;53.254;6.598;2023-08-07T05:44:53;15.00;99.90
51884;DHT22;37915;53.254;6.598;2023-08-07T05:47:18;15.00;99.90
51884;DHT22;37915;53.254;6.598;2023-08-07T05:49:44;15.00;99.90
51884;DHT22;37915;53.254;6.598;2023-08-07T05:52:10;15.20;99.90
51884;DHT22;37915;53.254;6.598;2023-08-07T05:54:35;15.20;99.90
51884;DHT22;37915;53.254;6.598;2023-08-07T05:57:01;15.20;99.90
51884;DHT22;37915;53.254;6.598;2023-08-07T05:59:27;15.10;99.90
51884;DHT22;37915;53.254;6.598;2023-08-07T06:01:53;15.10;99.90
51884;DHT22;37915;53.254;6.598;2023-08-07T06:04:20;15.10;99.90
51884;DHT22;37915;53.254;6.598;2023-08-07T06:06:46;15.10;99.90
51884;DHT22;37915;53.254;6.598;2023-08-07T06:09:12;15.00;99.90
51884;DHT22;37915;53.254;6.598;2023-08-07T06:11:38;15.00;99.90
51884;DHT22;37915;53.254;6.598;2023-08-07T06:14:03;15.00;99.90
51884;DHT22;37915;53.254;6.598;2023-08-07T06:16:29;15.10;99.90
51884;DHT22;37915;53.254;6.598;2023-08-07T06:18:55;15.20;99.90
51884;DHT22;37915;53.254;6.598;2023-08-07T06:21:21;15.20;99.90
51884;DHT22;37915;53.254;6.598;2023-08-07T06:23:46;15.30;99.90
51884;DHT22;37915;53.254;6.598;2023-08-07T06:26:13;15.30;99.90
51884;DHT22;37915;53.254;6.598;2023-08-07T06:28:38;15.30;99.90
51884;DHT22;37915;53.254;6.598;2023-08-07T06:31:06;15.40;99.90
51884;DHT22;37915;53.254;6.598;2023-08-07T06:33:32;15.40;99.90
51884;DHT22;37915;53.254;6.598;2023-08-07T06:35:59;15.40;99.90
51884;DHT22;37915;53.254;6.598;2023-08-07T06:38:25;15.40;99.90
51884;DHT22;37915;53.254;6.598;2023-08-07T06:40:50;15.50;99.90
51884;DHT22;37915;53.254;6.598;2023-08-07T06:43:16;15.50;99.90
51884;DHT22;37915;53.254;6.598;2023-08-07T06:45:42;15.40;99.90
51884;DHT22;37915;53.254;6.598;2023-08-07T06:48:08;15.30;99.90
51884;DHT22;37915;53.254;6.598;2023-08-07T06:50:34;15.20;99.90
51884;DHT22;37915;53.254;6.598;2023-08-07T06:52:59;15.10;99.90
51884;DHT22;37915;53.254;6.598;2023-08-07T06:55:26;15.00;99.90
51884;DHT22;37915;53.254;6.598;2023-08-07T06:57:52;15.00;99.90
51884;DHT22;37915;53.254;6.598;2023-08-07T07:00:17;15.00;99.90
51884;DHT22;37915;53.254;6.598;2023-08-07T07:02:43;15.00;99.90
51884;DHT22;37915;53.254;6.598;2023-08-07T07:05:09;15.00;99.90
51884;DHT22;37915;53.254;6.598;2023-08-07T07:07:35;15.10;99.90
51884;DHT22;37915;53.254;6.598;2023-08-07T07:10:00;15.00;99.90
51884;DHT22;37915;53.254;6.598;2023-08-07T07:12:29;15.10;99.90
51884;DHT22;37915;53.254;6.598;2023-08-07T07:14:55;15.00;99.90
51884;DHT22;37915;53.254;6.598;2023-08-07T07:17:21;15.00;99.90
51884;DHT22;37915;53.254;6.598;2023-08-07T07:19:46;15.00;99.90
51884;DHT22;37915;53.254;6.598;2023-08-07T07:22:12;15.00;99.90
51884;DHT22;37915;53.254;6.598;2023-08-07T07:24:38;15.00;99.90
51884;DHT22;37915;53.254;6.598;2023-08-07T07:27:04;15.00;99.90
51884;DHT22;37915;53.254;6.598;2023-08-07T07:29:30;15.00;99.90
51884;DHT22;37915;53.254;6.598;2023-08-07T07:31:56;15.10;99.90
51884;DHT22;37915;53.254;6.598;2023-08-07T07:34:22;15.20;99.90
51884;DHT22;37915;53.254;6.598;2023-08-07T07:36:47;15.20;99.90
51884;DHT22;37915;53.254;6.598;2023-08-07T07:39:13;15.30;99.90
51884;DHT22;37915;53.254;6.598;2023-08-07T07:41:39;15.30;99.90
51884;DHT22;37915;53.254;6.598;2023-08-07T07:44:05;15.40;99.90
51884;DHT22;37915;53.254;6.598;2023-08-07T07:46:30;15.40;99.90
51884;DHT22;37915;53.254;6.598;2023-08-07T07:48:58;15.40;99.90
51884;DHT22;37915;53.254;6.598;2023-08-07T07:51:24;15.50;99.90
51884;DHT22;37915;53.254;6.598;2023-08-07T07:53:50;15.60;99.90
51884;DHT22;37915;53.254;6.598;2023-08-07T07:56:16;15.60;99.90
51884;DHT22;37915;53.254;6.598;2023-08-07T07:58:41;15.70;99.90
51884;DHT22;37915;53.254;6.598;2023-08-07T08:01:07;15.70;99.90
51884;DHT22;37915;53.254;6.598;2023-08-07T08:03:33;15.60;99.90
51884;DHT22;37915;53.254;6.598;2023-08-07T08:05:59;15.50;99.90
51884;DHT22;37915;53.254;6.598;2023-08-07T08:08:26;15.40;99.90
51884;DHT22;37915;53.254;6.598;2023-08-07T08:10:52;15.30;99.90
51884;DHT22;37915;53.254;6.598;2023-08-07T08:13:18;15.20;99.90
51884;DHT22;37915;53.254;6.598;2023-08-07T08:15:44;15.20;99.90
51884;DHT22;37915;53.254;6.598;2023-08-07T08:18:10;15.20;99.90
51884;DHT22;37915;53.254;6.598;2023-08-07T08:20:37;15.10;99.90
51884;DHT22;37915;53.254;6.598;2023-08-07T08:23:04;15.20;99.90
51884;DHT22;37915;53.254;6.598;2023-08-07T08:25:30;15.20;99.90
51884;DHT22;37915;53.254;6.598;2023-08-07T08:27:56;15.30;99.90
51884;DHT22;37915;53.254;6.598;2023-08-07T08:30:22;15.50;99.90
51884;DHT22;37915;53.254;6.598;2023-08-07T08:32:48;15.80;99.90
51884;DHT22;37915;53.254;6.598;2023-08-07T08:35:14;16.00;99.90
51884;DHT22;37915;53.254;6.598;2023-08-07T08:37:40;16.10;99.90
51884;DHT22;37915;53.254;6.598;2023-08-07T08:40:07;16.10;99.90
51884;DHT22;37915;53.254;6.598;2023-08-07T08:42:34;16.20;99.90
51884;DHT22;37915;53.254;6.598;2023-08-07T08:45:00;16.20;99.90
51884;DHT22;37915;53.254;6.598;2023-08-07T08:47:29;16.20;99.90
51884;DHT22;37915;53.254;6.598;2023-08-07T08:50:08;16.20;99.90
51884;DHT22;37915;53.254;6.598;2023-08-07T08:52:37;16.40;99.90
51884;DHT22;37915;53.254;6.598;2023-08-07T08:55:03;16.50;99.90
51884;DHT22;37915;53.254;6.598;2023-08-07T08:57:30;16.60;99.90
51884;DHT22;37915;53.254;6.598;2023-08-07T08:59:56;16.70;99.90
51884;DHT22;37915;53.254;6.598;2023-08-07T09:02:23;16.80;99.90
51884;DHT22;37915;53.254;6.598;2023-08-07T09:04:49;16.90;99.90
51884;DHT22;37915;53.254;6.598;2023-08-07T09:07:20;17.20;99.90
51884;DHT22;37915;53.254;6.598;2023-08-07T09:09:46;17.00;99.90
51884;DHT22;37915;53.254;6.598;2023-08-07T09:12:19;16.90;99.90
51884;DHT22;37915;53.254;6.598;2023-08-07T09:14:46;17.20;99.90
51884;DHT22;37915;53.254;6.598;2023-08-07T09:17:13;17.10;99.90
51884;DHT22;37915;53.254;6.598;2023-08-07T09:19:40;17.00;99.90
51884;DHT22;37915;53.254;6.598;2023-08-07T09:22:06;16.70;99.90
51884;DHT22;37915;53.254;6.598;2023-08-07T09:24:32;16.70;99.90
51884;DHT22;37915;53.254;6.598;2023-08-07T09:26:58;16.60;99.90
51884;DHT22;37915;53.254;6.598;2023-08-07T09:29:24;16.60;99.90
51884;DHT22;37915;53.254;6.598;2023-08-07T09:31:50;16.80;99.90
51884;DHT22;37915;53.254;6.598;2023-08-07T09:34:19;16.90;99.90
51884;DHT22;37915;53.254;6.598;2023-08-07T09:36:45;17.20;99.90
51884;DHT22;37915;53.254;6.598;2023-08-07T09:39:11;17.60;99.90
51884;DHT22;37915;53.254;6.598;2023-08-07T09:41:37;17.30;99.90
51884;DHT22;37915;53.254;6.598;2023-08-07T09:44:10;17.30;99.90
51884;DHT22;37915;53.254;6.598;2023-08-07T09:46:45;17.40;99.90
51884;DHT22;37915;53.254;6.598;2023-08-07T09:49:11;17.70;99.90
51884;DHT22;37915;53.254;6.598;2023-08-07T09:51:44;18.00;99.90
51884;DHT22;37915;53.254;6.598;2023-08-07T09:54:10;17.70;99.90
51884;DHT22;37915;53.254;6.598;2023-08-07T09:56:40;17.70;99.90
51884;DHT22;37915;53.254;6.598;2023-08-07T09:59:07;17.50;99.90
51884;DHT22;37915;53.254;6.598;2023-08-07T10:01:35;17.50;99.90
51884;DHT22;37915;53.254;6.598;2023-08-07T10:04:01;17.30;99.90
51884;DHT22;37915;53.254;6.598;2023-08-07T10:06:27;17.10;99.90
51884;DHT22;37915;53.254;6.598;2023-08-07T10:08:54;16.90;99.90
51884;DHT22;37915;53.254;6.598;2023-08-07T10:11:21;16.80;99.90
51884;DHT22;37915;53.254;6.598;2023-08-07T10:13:48;16.80;99.90
51884;DHT22;37915;53.254;6.598;2023-08-07T10:16:14;17.10;99.90
51884;DHT22;37915;53.254;6.598;2023-08-07T10:18:39;16.90;99.90
51884;DHT22;37915;53.254;6.598;2023-08-07T10:21:06;17.30;99.90
51884;DHT22;37915;53.254;6.598;2023-08-07T10:23:36;17.50;99.90
51884;DHT22;37915;53.254;6.598;2023-08-07T10:26:05;17.40;99.90
51884;DHT22;37915;53.254;6.598;2023-08-07T10:28:33;17.40;99.90
51884;DHT22;37915;53.254;6.598;2023-08-07T10:31:04;17.50;99.90
51884;DHT22;37915;53.254;6.598;2023-08-07T10:33:31;17.40;99.90
51884;DHT22;37915;53.254;6.598;2023-08-07T10:35:57;17.30;99.90
51884;DHT22;37915;53.254;6.598;2023-08-07T10:38:25;17.10;99.90
51884;DHT22;37915;53.254;6.598;2023-08-07T10:43:38;17.30;99.90
51884;DHT22;37915;53.254;6.598;2023-08-07T10:46:16;17.00;99.90
51884;DHT22;37915;53.254;6.598;2023-08-07T10:48:43;17.00;99.90
51884;DHT22;37915;53.254;6.598;2023-08-07T10:51:17;17.20;99.90
51884;DHT22;37915;53.254;6.598;2023-08-07T10:53:49;17.20;99.90
51884;DHT22;37915;53.254;6.598;2023-08-07T10:56:31;17.50;99.90
51884;DHT22;37915;53.254;6.598;2023-08-07T10:58:57;17.40;99.90
51884;DHT22;37915;53.254;6.598;2023-08-07T11:04:11;17.70;99.90
51884;DHT22;37915;53.254;6.598;2023-08-07T11:06:38;17.90;99.90
51884;DHT22;37915;53.254;6.598;2023-08-07T11:09:06;18.10;99.90
51884;DHT22;37915;53.254;6.598;2023-08-07T11:11:39;18.10;99.90
51884;DHT22;37915;53.254;6.598;2023-08-07T11:14:09;18.00;99.90
51884;DHT22;37915;53.254;6.598;2023-08-07T11:16:35;17.80;99.90
51884;DHT22;37915;53.254;6.598;2023-08-07T11:19:01;17.80;99.90
51884;DHT22;37915;53.254;6.598;2023-08-07T11:21:28;17.70;99.90
51884;DHT22;37915;53.254;6.598;2023-08-07T11:23:54;17.40;99.90
51884;DHT22;37915;53.254;6.598;2023-08-07T11:26:19;17.30;99.90
51884;DHT22;37915;53.254;6.598;2023-08-07T11:28:50;17.10;99.90
51884;DHT22;37915;53.254;6.598;2023-08-07T11:31:20;17.00;99.90
51884;DHT22;37915;53.254;6.598;2023-08-07T11:33:50;16.90;99.90
51884;DHT22;37915;53.254;6.598;2023-08-07T11:36:16;16.80;99.90
51884;DHT22;37915;53.254;6.598;2023-08-07T11:38:42;16.80;99.90
51884;DHT22;37915;53.254;6.598;2023-08-07T11:41:09;16.80;99.90
51884;DHT22;37915;53.254;6.598;2023-08-07T11:43:36;16.80;99.90
51884;DHT22;37915;53.254;6.598;2023-08-07T11:46:04;16.80;99.90
51884;DHT22;37915;53.254;6.598;2023-08-07T11:48:33;16.80;99.90
51884;DHT22;37915;53.254;6.598;2023-08-07T11:51:00;16.70;99.90
51884;DHT22;37915;53.254;6.598;2023-08-07T11:53:27;16.70;99.90
51884;DHT22;37915;53.254;6.598;2023-08-07T11:56:00;16.70;99.90
51884;DHT22;37915;53.254;6.598;2023-08-07T11:58:28;16.70;99.90
51884;DHT22;37915;53.254;6.598;2023-08-07T12:00:58;16.70;99.90
51884;DHT22;37915;53.254;6.598;2023-08-07T12:03:32;16.60;99.90
51884;DHT22;37915;53.254;6.598;2023-08-07T12:06:01;16.70;99.90
51884;DHT22;37915;53.254;6.598;2023-08-07T12:11:02;16.50;99.90
51884;DHT22;37915;53.254;6.598;2023-08-07T12:13:29;16.20;99.90
51884;DHT22;37915;53.254;6.598;2023-08-07T12:15:56;16.10;99.90
51884;DHT22;37915;53.254;6.598;2023-08-07T12:18:23;16.00;99.90
51884;DHT22;37915;53.254;6.598;2023-08-07T12:21:07;16.00;99.90
51884;DHT22;37915;53.254;6.598;2023-08-07T12:23:34;16.10;99.90
51884;DHT22;37915;53.254;6.598;2023-08-07T12:26:00;16.00;99.90
51884;DHT22;37915;53.254;6.598;2023-08-07T12:28:26;16.20;99.90
51884;DHT22;37915;53.254;6.598;2023-08-07T12:30:52;16.30;99.90
51884;DHT22;37915;53.254;6.598;2023-08-07T12:33:18;16.50;99.90
51884;DHT22;37915;53.254;6.598;2023-08-07T12:35:44;16.60;99.90
51884;DHT22;37915;53.254;6.598;2023-08-07T12:38:11;16.50;99.90
51884;DHT22;37915;53.254;6.598;2023-08-07T12:40:39;16.80;99.90
51884;DHT22;37915;53.254;6.598;2023-08-07T12:43:05;16.90;99.90
51884;DHT22;37915;53.254;6.598;2023-08-07T12:45:31;17.30;99.90
51884;DHT22;37915;53.254;6.598;2023-08-07T12:47:57;17.40;99.90
51884;DHT22;37915;53.254;6.598;2023-08-07T12:50:23;17.50;99.90
51884;DHT22;37915;53.254;6.598;2023-08-07T12:52:49;17.60;99.90
51884;DHT22;37915;53.254;6.598;2023-08-07T12:55:14;17.60;99.90
51884;DHT22;37915;53.254;6.598;2023-08-07T12:57:41;17.70;99.90
51884;DHT22;37915;53.254;6.598;2023-08-07T13:00:09;17.70;99.90
51884;DHT22;37915;53.254;6.598;2023-08-07T13:02:39;17.80;99.90
51884;DHT22;37915;53.254;6.598;2023-08-07T13:05:05;18.00;99.90
51884;DHT22;37915;53.254;6.598;2023-08-07T13:07:31;18.10;99.90
51884;DHT22;37915;53.254;6.598;2023-08-07T13:09:57;18.00;99.90
51884;DHT22;37915;53.254;6.598;2023-08-07T13:12:23;17.90;99.90
51884;DHT22;37915;53.254;6.598;2023-08-07T13:14:48;18.20;99.90
51884;DHT22;37915;53.254;6.598;2023-08-07T13:17:14;18.30;99.90
51884;DHT22;37915;53.254;6.598;2023-08-07T13:19:40;18.30;99.90
51884;DHT22;37915;53.254;6.598;2023-08-07T13:22:07;18.10;99.90
51884;DHT22;37915;53.254;6.598;2023-08-07T13:24:33;18.00;99.90
51884;DHT22;37915;53.254;6.598;2023-08-07T13:26:58;17.90;99.90
51884;DHT22;37915;53.254;6.598;2023-08-07T13:29:24;17.80;99.90
51884;DHT22;37915;53.254;6.598;2023-08-07T13:31:51;17.80;99.90
51884;DHT22;37915;53.254;6.598;2023-08-07T13:34:17;17.70;99.90
51884;DHT22;37915;53.254;6.598;2023-08-07T13:36:43;17.50;99.90
51884;DHT22;37915;53.254;6.598;2023-08-07T13:39:08;17.60;99.90
51884;DHT22;37915;53.254;6.598;2023-08-07T13:41:34;17.70;99.90
51884;DHT22;37915;53.254;6.598;2023-08-07T13:44:00;17.70;99.90
51884;DHT22;37915;53.254;6.598;2023-08-07T13:46:26;17.70;99.90
51884;DHT22;37915;53.254;6.598;2023-08-07T13:48:52;17.70;99.90
51884;DHT22;37915;53.254;6.598;2023-08-07T13:51:19;17.70;99.90
51884;DHT22;37915;53.254;6.598;2023-08-07T13:53:46;17.60;99.90
51884;DHT22;37915;53.254;6.598;2023-08-07T13:56:11;17.50;99.90
51884;DHT22;37915;53.254;6.598;2023-08-07T13:58:42;17.40;99.90
51884;DHT22;37915;53.254;6.598;2023-08-07T14:01:08;17.40;99.90
51884;DHT22;37915;53.254;6.598;2023-08-07T14:03:34;17.30;99.90
51884;DHT22;37915;53.254;6.598;2023-08-07T14:06:00;17.30;99.90
51884;DHT22;37915;53.254;6.598;2023-08-07T14:08:26;17.30;99.90
51884;DHT22;37915;53.254;6.598;2023-08-07T14:10:52;17.20;99.90
51884;DHT22;37915;53.254;6.598;2023-08-07T14:13:18;17.10;99.90
51884;DHT22;37915;53.254;6.598;2023-08-07T14:15:44;17.20;99.90
51884;DHT22;37915;53.254;6.598;2023-08-07T14:18:09;17.10;99.90
51884;DHT22;37915;53.254;6.598;2023-08-07T14:20:40;17.20;99.90
51884;DHT22;37915;53.254;6.598;2023-08-07T14:23:06;17.30;99.90
51884;DHT22;37915;53.254;6.598;2023-08-07T14:25:31;17.30;99.90
51884;DHT22;37915;53.254;6.598;2023-08-07T14:27:57;17.20;99.90
51884;DHT22;37915;53.254;6.598;2023-08-07T14:30:23;17.10;99.90
51884;DHT22;37915;53.254;6.598;2023-08-07T14:32:49;17.10;99.90
51884;DHT22;37915;53.254;6.598;2023-08-07T14:35:15;17.10;99.90
51884;DHT22;37915;53.254;6.598;2023-08-07T14:37:41;17.40;99.90
51884;DHT22;37915;53.254;6.598;2023-08-07T14:40:07;17.70;99.90
51884;DHT22;37915;53.254;6.598;2023-08-07T14:42:33;17.80;99.90
51884;DHT22;37915;53.254;6.598;2023-08-07T14:44:59;18.00;99.90
51884;DHT22;37915;53.254;6.598;2023-08-07T14:47:25;18.20;99.90
51884;DHT22;37915;53.254;6.598;2023-08-07T14:49:51;18.40;99.90
51884;DHT22;37915;53.254;6.598;2023-08-07T14:52:18;18.50;99.90
51884;DHT22;37915;53.254;6.598;2023-08-07T14:54:43;18.50;99.90
51884;DHT22;37915;53.254;6.598;2023-08-07T14:57:09;18.30;99.90
51884;DHT22;37915;53.254;6.598;2023-08-07T14:59:35;18.10;99.90
51884;DHT22;37915;53.254;6.598;2023-08-07T15:02:01;17.90;99.90
51884;DHT22;37915;53.254;6.598;2023-08-07T15:04:27;17.80;99.90
51884;DHT22;37915;53.254;6.598;2023-08-07T15:06:52;17.70;99.90
51884;DHT22;37915;53.254;6.598;2023-08-07T15:09:18;17.60;99.90
51884;DHT22;37915;53.254;6.598;2023-08-07T15:11:46;17.20;99.90
51884;DHT22;37915;53.254;6.598;2023-08-07T15:14:12;17.50;99.90
51884;DHT22;37915;53.254;6.598;2023-08-07T15:16:38;17.60;99.90
51884;DHT22;37915;53.254;6.598;2023-08-07T15:19:04;17.70;99.90
51884;DHT22;37915;53.254;6.598;2023-08-07T15:21:30;17.60;99.90
51884;DHT22;37915;53.254;6.598;2023-08-07T15:23:56;17.50;99.90
51884;DHT22;37915;53.254;6.598;2023-08-07T15:26:22;17.40;99.90
51884;DHT22;37915;53.254;6.598;2023-08-07T15:28:47;17.40;99.90
51884;DHT22;37915;53.254;6.598;2023-08-07T15:31:13;17.30;99.90
51884;DHT22;37915;53.254;6.598;2023-08-07T15:33:39;17.20;99.90
51884;DHT22;37915;53.254;6.598;2023-08-07T15:36:05;17.10;99.90